EFVA

Vaasa Airport

Vaasa, Finland
METAR EFVA 201320Z AUTO 17003KT 9999 OVC068/// 10/07 Q1018
Observed Flight Rules
Oct-20 @ 13:20 UTC (39 minutes ago) Visual Flight Rules
Wind Visibility Clouds
170° at 3 knots 10,000+ meters
  • Overcast at 6,800' AGL
Temperatures Readings
Current 10°C / 50°F
Dewpoint 7°C / 45°F
Humidity 82%
Altimeter 30.06" Hg
Pressure 1018 hPa
Elevation 4
METAR EFVA 201320Z AUTO 17003KT 9999 OVC068/// 10/07 Q1018
Observed Flight Rules
Oct-20 @ 13:20 UTC
(39 minutes ago)
VFR
Wind Visibility
170° at 3 knots 10,000+ meters
Clouds
  • Overcast at 6,800' AGL
Temperature Dewpoint
10°C / 50°F 7°C / 45°F
Humidity Altimeter Pressure
82% 30.06" Hg 1018 hPa